createdAt,value
2019-03-03T00:05:12.143Z,100580.98
2019-03-03T00:07:43.386Z,100580.98
2019-03-03T00:10:14.696Z,100577.92
2019-03-03T00:12:43.708Z,100569.98
2019-03-03T00:15:15.102Z,100571.28
2019-03-03T00:17:46.455Z,100570.25
2019-03-03T00:20:15.952Z,100570.25
2019-03-03T00:22:47.292Z,100562.00
2019-03-03T00:25:16.389Z,100566.30
2019-03-03T00:27:45.152Z,100562.44
2019-03-03T00:30:17.781Z,100557.86
2019-03-03T00:32:46.602Z,100557.86
2019-03-03T00:35:15.700Z,100552.16
2019-03-03T00:38:09.724Z,100537.05
2019-03-03T00:40:41.536Z,100535.56
2019-03-03T00:43:20.081Z,100535.56
2019-03-03T00:45:50.946Z,100535.56
2019-03-03T00:48:24.047Z,100534.77
2019-03-03T00:50:57.074Z,100531.30
2019-03-03T00:53:46.370Z,100536.26
2019-03-03T00:56:28.515Z,100530.31
2019-03-03T00:59:01.941Z,100523.56
2019-03-03T01:01:37.933Z,100525.59
2019-03-03T01:04:28.969Z,100525.59
2019-03-03T01:07:17.346Z,100515.45
2019-03-03T01:10:11.090Z,100515.45
2019-03-03T01:12:58.606Z,100509.30
2019-03-03T01:15:34.580Z,100516.16
2019-03-03T01:18:15.855Z,100502.22
2019-03-03T01:20:54.927Z,100505.03
2019-03-03T01:23:33.550Z,100499.31
2019-03-03T01:26:04.791Z,100504.80
2019-03-03T01:28:37.136Z,100496.75
2019-03-03T01:31:05.709Z,100496.75
2019-03-03T01:33:34.353Z,100509.20
2019-03-03T01:36:03.375Z,100505.77
2019-03-03T01:38:32.285Z,100500.85
2019-03-03T01:41:03.996Z,100498.27
2019-03-03T01:43:35.243Z,100500.39
2019-03-03T01:46:03.966Z,100503.84
2019-03-03T01:48:35.694Z,100503.84
2019-03-03T01:51:06.981Z,100493.94
2019-03-03T01:53:39.768Z,100493.11
2019-03-03T01:56:11.325Z,100482.72
2019-03-03T01:58:40.347Z,100482.72
2019-03-03T02:01:11.928Z,100489.42
2019-03-03T02:03:43.820Z,100480.72
2019-03-03T02:06:12.459Z,100458.09
2019-03-03T02:08:44.123Z,100458.09
2019-03-03T02:11:16.022Z,100458.70
2019-03-03T02:13:45.053Z,100467.80
2019-03-03T02:16:13.977Z,100455.96
2019-03-03T02:18:45.258Z,100451.24
2019-03-03T02:21:13.975Z,100451.24
2019-03-03T02:23:45.733Z,100427.54
2019-03-03T02:26:17.690Z,100438.03
2019-03-03T02:28:49.112Z,100437.86
2019-03-03T02:31:18.253Z,100437.86
2019-03-03T02:33:46.835Z,100440.25
2019-03-03T02:36:18.721Z,100437.48
2019-03-03T02:38:50.003Z,100436.30
2019-03-03T02:41:18.586Z,100427.92
2019-03-03T02:43:50.202Z,100425.22
2019-03-03T02:46:21.522Z,100425.22
2019-03-03T02:48:52.818Z,100429.73
2019-03-03T02:51:24.140Z,100429.73
2019-03-03T02:53:55.698Z,100423.95
2019-03-03T02:56:26.983Z,100430.02
2019-03-03T02:58:55.790Z,100427.11
2019-03-03T03:01:26.003Z,100426.19
2019-03-03T03:03:57.644Z,100420.62
2019-03-03T03:09:26.695Z,100417.92
2019-03-03T03:12:02.217Z,100413.82
2019-03-03T03:14:38.051Z,100414.97
2019-03-03T03:17:11.368Z,100414.97
2019-03-03T03:19:46.837Z,100409.35
2019-03-03T03:22:19.760Z,100406.37
2019-03-03T03:25:05.076Z,100406.37
2019-03-03T03:27:37.971Z,100397.79
2019-03-03T03:30:11.708Z,100391.10
2019-03-03T03:32:47.304Z,100391.30
2019-03-03T03:35:23.709Z,100395.94
2019-03-03T03:38:00.161Z,100386.23
2019-03-03T03:40:42.189Z,100382.95
2019-03-03T03:43:15.308Z,100379.53
2019-03-03T03:46:00.821Z,100381.00
2019-03-03T03:48:50.144Z,100371.02
2019-03-03T03:51:38.818Z,100367.59
2019-03-03T03:54:19.171Z,100361.03
2019-03-03T03:57:07.121Z,100352.55
2019-03-03T03:59:43.945Z,100353.27
2019-03-03T04:02:26.030Z,100344.64
2019-03-03T04:05:11.046Z,100338.87
2019-03-03T04:07:41.289Z,100336.44
2019-03-03T04:10:23.742Z,100333.59
2019-03-03T04:13:11.819Z,100333.27
2019-03-03T04:15:57.320Z,100336.05
2019-03-03T04:18:36.292Z,100331.38
2019-03-03T04:21:21.351Z,100334.27
2019-03-03T04:24:12.377Z,100329.13
2019-03-03T04:26:54.091Z,100327.13
2019-03-03T04:29:26.905Z,100315.17
2019-03-03T04:31:57.166Z,100319.69
2019-03-03T04:34:45.938Z,100309.66
2019-03-03T04:37:19.156Z,100305.69
2019-03-03T04:39:57.882Z,100300.97
2019-03-03T04:42:42.392Z,100298.86
2019-03-03T04:45:31.379Z,100290.72
2019-03-03T04:48:20.572Z,100287.53
2019-03-03T04:50:54.115Z,100295.28
2019-03-03T04:56:20.749Z,100289.19
2019-03-03T04:58:57.070Z,100295.75
2019-03-03T05:01:30.111Z,100300.91
2019-03-03T05:04:03.023Z,100292.16
2019-03-03T05:06:33.273Z,100287.53
2019-03-03T05:09:14.518Z,100291.16
2019-03-03T05:12:18.902Z,100284.75
2019-03-03T05:14:52.056Z,100288.93
2019-03-03T05:17:25.283Z,100278.09
2019-03-03T05:20:04.554Z,100278.09
2019-03-03T05:22:33.100Z,100273.69
2019-03-03T05:25:01.787Z,100275.63
2019-03-03T05:27:33.065Z,100277.41
2019-03-03T05:30:07.706Z,100272.97
2019-03-03T05:32:39.715Z,100280.45
2019-03-03T05:35:10.478Z,100268.63
2019-03-03T05:37:42.057Z,100276.05
2019-03-03T05:40:10.768Z,100271.12
2019-03-03T05:42:42.248Z,100268.98
2019-03-03T05:45:13.827Z,100257.93
2019-03-03T05:47:45.135Z,100262.17
2019-03-03T05:50:16.694Z,100253.49
2019-03-03T05:52:45.295Z,100256.12
2019-03-03T05:55:16.981Z,100251.56
2019-03-03T05:57:46.509Z,100245.41
2019-03-03T06:00:17.987Z,100240.69
2019-03-03T06:02:49.873Z,100240.65
2019-03-03T06:05:18.483Z,100249.86
2019-03-03T06:07:49.762Z,100244.02
2019-03-03T06:10:21.327Z,100239.98
2019-03-03T06:12:52.606Z,100232.95
2019-03-03T06:15:21.549Z,100232.94
2019-03-03T06:17:50.556Z,100239.42
2019-03-03T06:20:22.498Z,100235.28
2019-03-03T06:22:54.126Z,100228.05
2019-03-03T06:25:26.027Z,100231.38
2019-03-03T06:27:57.419Z,100228.60
2019-03-03T06:30:29.410Z,100229.05
2019-03-03T06:33:00.797Z,100228.14
2019-03-03T06:35:32.278Z,100220.56
2019-03-03T06:38:03.869Z,100223.13
2019-03-03T06:40:35.348Z,100221.56
2019-03-03T06:43:07.680Z,100213.13
2019-03-03T06:45:40.447Z,100209.16
2019-03-03T06:48:12.363Z,100218.44
2019-03-03T06:50:40.980Z,100209.25
2019-03-03T06:53:12.662Z,100215.62
2019-03-03T06:55:44.234Z,100218.98
2019-03-03T06:58:12.947Z,100213.94
2019-03-03T07:00:44.213Z,100209.23
2019-03-03T07:03:15.463Z,100208.52
2019-03-03T07:05:46.942Z,100197.09
2019-03-03T07:08:18.547Z,100196.33
2019-03-03T07:10:49.925Z,100198.78
2019-03-03T07:13:21.727Z,100191.38
2019-03-03T07:15:53.499Z,100200.84
2019-03-03T07:18:24.885Z,100198.58
2019-03-03T07:24:02.674Z,100191.35
2019-03-03T07:26:34.261Z,100191.23
2019-03-03T07:29:05.564Z,100190.44
2019-03-03T07:31:39.797Z,100191.99
2019-03-03T07:34:11.390Z,100196.82
2019-03-03T07:36:39.987Z,100194.02
2019-03-03T07:39:18.579Z,100195.98
2019-03-03T07:41:50.622Z,100197.33
2019-03-03T07:44:19.194Z,100186.47
2019-03-03T07:46:50.815Z,100181.47
2019-03-03T07:49:22.405Z,100183.91
2019-03-03T07:51:53.810Z,100188.38
2019-03-03T07:54:25.039Z,100197.28
2019-03-03T07:56:56.639Z,100178.88
2019-03-03T07:59:25.760Z,100179.34
2019-03-03T08:01:57.349Z,100171.73
2019-03-03T08:04:28.725Z,100172.95
2019-03-03T08:07:00.530Z,100170.39
2019-03-03T08:09:31.798Z,100175.75
2019-03-03T08:12:00.432Z,100171.05
2019-03-03T08:14:29.045Z,100174.09
2019-03-03T08:16:57.754Z,100180.77
2019-03-03T08:19:29.228Z,100156.66
2019-03-03T08:22:00.909Z,100154.58
2019-03-03T08:24:29.534Z,100160.11
2019-03-03T08:27:00.906Z,100158.26
2019-03-03T08:29:32.228Z,100151.45
2019-03-03T08:32:00.998Z,100151.63
2019-03-03T08:34:29.622Z,100145.59
2019-03-03T08:37:01.085Z,100145.64
2019-03-03T08:39:30.013Z,100148.84
2019-03-03T08:42:03.207Z,100148.91
2019-03-03T08:44:36.248Z,100135.63
2019-03-03T08:47:12.140Z,100137.10
2019-03-03T08:49:47.783Z,100136.97
2019-03-03T08:52:17.971Z,100135.55
2019-03-03T08:54:50.893Z,100122.47
2019-03-03T08:57:23.905Z,100139.86
2019-03-03T09:00:02.832Z,100146.63
2019-03-03T09:02:35.679Z,100139.36
2019-03-03T09:05:07.258Z,100144.45
2019-03-03T09:07:40.678Z,100148.11
2019-03-03T09:10:25.326Z,100142.03
2019-03-03T09:12:54.430Z,100129.63
2019-03-03T09:15:27.980Z,100143.06
2019-03-03T09:17:58.178Z,100140.72
2019-03-03T09:20:44.213Z,100139.52
2019-03-03T09:23:32.676Z,100139.77
2019-03-03T09:26:18.242Z,100139.86
2019-03-03T09:29:00.593Z,100145.41
2019-03-03T09:31:40.544Z,100142.69
2019-03-03T09:34:30.158Z,100133.28
2019-03-03T09:37:03.217Z,100156.73
2019-03-03T09:39:33.405Z,100137.47
2019-03-03T09:42:21.703Z,100141.06
2019-03-03T09:45:10.720Z,100141.10
2019-03-03T09:48:01.970Z,100134.71
2019-03-03T09:50:37.972Z,100142.81
2019-03-03T09:53:17.137Z,100126.24
2019-03-03T09:55:56.074Z,100127.83
2019-03-03T09:58:29.307Z,100133.88
2019-03-03T10:01:02.440Z,100129.28
2019-03-03T10:03:48.863Z,100140.48
2019-03-03T10:06:35.298Z,100143.24
2019-03-03T10:09:10.073Z,100143.27
2019-03-03T10:11:49.574Z,100132.66
2019-03-03T10:14:22.596Z,100135.08
2019-03-03T10:16:58.689Z,100136.48
2019-03-03T10:19:28.890Z,100136.94
2019-03-03T10:21:59.107Z,100135.56
2019-03-03T10:24:41.362Z,100141.73
2019-03-03T10:27:11.719Z,100134.80
2019-03-03T10:29:41.926Z,100133.41
2019-03-03T10:32:18.140Z,100138.05
2019-03-03T10:34:48.493Z,100136.22
2019-03-03T10:37:34.991Z,100139.76
2019-03-03T10:40:22.321Z,100146.34
2019-03-03T10:42:52.544Z,100142.91
2019-03-03T10:45:34.650Z,100142.47
2019-03-03T10:48:21.412Z,100136.89
2019-03-03T10:50:52.035Z,100144.25
2019-03-03T10:53:30.907Z,100143.27
2019-03-03T10:56:01.105Z,100133.49
2019-03-03T10:58:57.522Z,100145.29
2019-03-03T11:01:28.149Z,100147.53
2019-03-03T11:04:01.292Z,100137.82
2019-03-03T11:06:34.417Z,100142.26
2019-03-03T11:09:10.547Z,100144.20
2019-03-03T11:11:45.132Z,100137.91
2019-03-03T11:14:18.789Z,100141.27
2019-03-03T11:17:05.356Z,100132.39
2019-03-03T11:19:41.822Z,100133.89
2019-03-03T11:22:15.263Z,100134.83
2019-03-03T11:24:51.672Z,100131.73
2019-03-03T11:27:27.818Z,100131.05
2019-03-03T11:30:14.415Z,100136.85
2019-03-03T11:32:44.975Z,100131.20
2019-03-03T11:35:27.064Z,100133.28
2019-03-03T11:38:00.079Z,100126.75
2019-03-03T11:40:33.501Z,100136.89
2019-03-03T11:43:20.441Z,100123.78
2019-03-03T11:46:04.153Z,100127.06
2019-03-03T11:48:51.215Z,100118.19
2019-03-03T11:51:24.377Z,100114.30
2019-03-03T11:53:59.744Z,100115.45
2019-03-03T11:56:32.668Z,100117.38
2019-03-03T11:59:19.784Z,100105.50
2019-03-03T12:02:01.779Z,100099.40
2019-03-03T12:04:37.624Z,100095.58
2019-03-03T12:07:29.967Z,100109.97
2019-03-03T12:10:16.340Z,100101.37
2019-03-03T12:12:58.576Z,100100.96
2019-03-03T12:15:34.330Z,100105.48
2019-03-03T12:18:07.592Z,100101.95
2019-03-03T12:20:37.989Z,100102.51
2019-03-03T12:23:20.068Z,100094.28
2019-03-03T12:25:50.362Z,100102.09
2019-03-03T12:28:20.556Z,100103.80
2019-03-03T12:31:06.132Z,100109.58
2019-03-03T12:33:45.848Z,100102.36
2019-03-03T12:36:16.069Z,100100.06
2019-03-03T12:38:52.655Z,100101.02
2019-03-03T12:41:25.507Z,100102.67
2019-03-03T12:43:55.854Z,100103.66
2019-03-03T12:46:28.481Z,100102.88
2019-03-03T12:49:17.716Z,100095.10
2019-03-03T12:51:48.445Z,100096.68
2019-03-03T12:54:19.479Z,100094.81
2019-03-03T12:56:55.405Z,100083.30
2019-03-03T12:59:42.013Z,100088.49
2019-03-03T13:02:29.433Z,100088.55
2019-03-03T13:05:11.834Z,100083.48
2019-03-03T13:07:51.705Z,100081.02
2019-03-03T13:10:24.932Z,100082.47
2019-03-03T13:13:01.211Z,100079.30
2019-03-03T13:15:34.246Z,100075.68
2019-03-03T13:18:07.294Z,100076.48
2019-03-03T13:20:43.335Z,100083.41
2019-03-03T13:23:15.570Z,100074.33
2019-03-03T13:26:04.128Z,100067.20
2019-03-03T13:28:46.239Z,100059.93
2019-03-03T13:31:21.870Z,100061.52
2019-03-03T13:34:00.823Z,100052.95
2019-03-03T13:36:43.056Z,100072.05
2019-03-03T13:39:28.167Z,100058.81
2019-03-03T13:42:03.767Z,100053.48
2019-03-03T13:44:32.338Z,100054.42
2019-03-03T13:47:04.078Z,100055.75
2019-03-03T13:49:35.720Z,100045.02
2019-03-03T13:52:09.060Z,100045.58
2019-03-03T13:54:40.042Z,100047.69
2019-03-03T13:57:11.834Z,100042.44
2019-03-03T13:59:41.486Z,100037.59
2019-03-03T14:02:14.864Z,100038.56
2019-03-03T14:04:43.440Z,100044.81
2019-03-03T14:07:14.802Z,100041.73
2019-03-03T14:09:46.789Z,100027.02
2019-03-03T14:12:18.068Z,100029.66
2019-03-03T14:14:49.658Z,100023.77
2019-03-03T14:17:20.945Z,100022.00
2019-03-03T14:19:52.735Z,100021.36
2019-03-03T14:22:24.217Z,100027.24
2019-03-03T14:24:52.823Z,100029.09
2019-03-03T14:27:24.195Z,100026.58
2019-03-03T14:29:56.032Z,100020.80
2019-03-03T14:32:27.369Z,100019.24
2019-03-03T14:35:00.300Z,100017.94
2019-03-03T14:37:31.539Z,100007.13
2019-03-03T14:40:00.326Z,100006.44
2019-03-03T14:42:29.512Z,100002.38
2019-03-03T14:45:01.106Z,100001.98
2019-03-03T14:47:32.668Z,100005.28
2019-03-03T14:50:06.704Z,99999.38
2019-03-03T14:52:35.314Z,99997.67
2019-03-03T14:55:09.975Z,99999.72
2019-03-03T14:57:41.270Z,100000.47
2019-03-03T15:00:14.102Z,99996.62
2019-03-03T15:02:43.081Z,99996.36
2019-03-03T15:05:11.703Z,99993.82
2019-03-03T15:07:42.947Z,100004.92
2019-03-03T15:10:14.370Z,99986.23
2019-03-03T15:12:42.912Z,99983.09
2019-03-03T15:15:17.521Z,99986.77
2019-03-03T15:17:48.795Z,99984.89
2019-03-03T15:20:17.914Z,99992.41
2019-03-03T15:22:46.645Z,99983.64
2019-03-03T15:25:18.042Z,99985.94
2019-03-03T15:27:49.739Z,99991.52
2019-03-03T15:30:22.369Z,99990.45
2019-03-03T15:32:53.745Z,99997.28
2019-03-03T15:35:22.558Z,99990.91
2019-03-03T15:38:14.724Z,99982.88
2019-03-03T15:40:46.654Z,99984.55
2019-03-03T15:43:17.987Z,99972.94
2019-03-03T15:45:49.401Z,99976.47
2019-03-03T15:48:20.734Z,99973.27
2019-03-03T15:50:49.360Z,99976.45
2019-03-03T15:53:17.975Z,99981.14
2019-03-03T15:55:46.972Z,99970.44
2019-03-03T15:58:15.529Z,99960.05
2019-03-03T16:00:44.405Z,99971.48
2019-03-03T16:03:12.979Z,99965.86
2019-03-03T16:05:44.662Z,99964.09
2019-03-03T16:08:16.343Z,99956.84
2019-03-03T16:10:44.915Z,99957.00
2019-03-03T16:13:16.444Z,99954.72
2019-03-03T16:15:52.423Z,99951.14
2019-03-03T16:18:22.680Z,99952.59
2019-03-03T16:20:54.160Z,99945.64
2019-03-03T16:26:22.645Z,99937.09
2019-03-03T16:28:54.225Z,99931.29
2019-03-03T16:31:22.839Z,99934.64
2019-03-03T16:33:51.446Z,99923.49
2019-03-03T16:36:23.896Z,99927.39
2019-03-03T16:39:04.868Z,99919.83
2019-03-03T16:41:33.510Z,99919.05
2019-03-03T16:44:05.176Z,99914.08
2019-03-03T16:46:35.549Z,99916.77
2019-03-03T16:49:05.415Z,99913.16
2019-03-03T16:51:42.506Z,99909.91
2019-03-03T16:54:22.292Z,99908.89
2019-03-03T16:56:50.905Z,99909.36
2019-03-03T16:59:19.456Z,99906.24
2019-03-03T17:01:48.515Z,99909.36
2019-03-03T17:04:17.254Z,99906.91
2019-03-03T17:06:46.238Z,99901.70
2019-03-03T17:09:15.081Z,99904.53
2019-03-03T17:11:46.607Z,99906.38
2019-03-03T17:14:18.101Z,99899.98
2019-03-03T17:16:46.751Z,99895.06
2019-03-03T17:19:15.384Z,99896.69
2019-03-03T17:21:46.958Z,99894.60
2019-03-03T17:24:18.563Z,99894.08
2019-03-03T17:26:47.184Z,99888.80
2019-03-03T17:29:15.735Z,99892.93
2019-03-03T17:31:44.733Z,99890.28
2019-03-03T17:34:13.780Z,99893.16
2019-03-03T17:36:42.433Z,99884.63
2019-03-03T17:39:11.221Z,99890.33
2019-03-03T17:41:39.939Z,99895.39
2019-03-03T17:44:11.523Z,99897.98
2019-03-03T17:46:42.798Z,99900.73
2019-03-03T17:49:11.429Z,99893.77
2019-03-03T17:51:42.816Z,99896.22
2019-03-03T17:54:14.354Z,99894.14
2019-03-03T17:56:43.007Z,99893.25
2019-03-03T17:59:14.479Z,99886.81
2019-03-03T18:01:43.120Z,99889.27
2019-03-03T18:04:11.733Z,99878.50
2019-03-03T18:06:40.322Z,99882.39
2019-03-03T18:09:10.485Z,99877.34
2019-03-03T18:11:40.635Z,99872.84
2019-03-03T18:14:14.878Z,99862.45
2019-03-03T18:16:46.495Z,99860.69
2019-03-03T18:19:18.210Z,99867.41
2019-03-03T18:21:46.855Z,99865.66
2019-03-03T18:24:15.494Z,99863.14
2019-03-03T18:26:44.047Z,99861.47
2019-03-03T18:29:12.764Z,99859.86
2019-03-03T18:31:41.316Z,99859.62
2019-03-03T18:34:09.937Z,99856.66
2019-03-03T18:36:41.652Z,99849.70
2019-03-03T18:39:10.384Z,99854.66
2019-03-03T18:41:40.559Z,99849.31
2019-03-03T18:44:12.051Z,99848.67
2019-03-03T18:46:43.338Z,99851.97
2019-03-03T18:49:11.969Z,99846.49
2019-03-03T18:51:46.017Z,99841.44
2019-03-03T18:54:14.479Z,99843.95
2019-03-03T18:56:43.097Z,99849.84
2019-03-03T18:59:12.150Z,99840.28
2019-03-03T19:01:41.295Z,99842.05
2019-03-03T19:04:12.702Z,99838.61
2019-03-03T19:06:44.299Z,99837.85
2019-03-03T19:09:16.801Z,99831.41
2019-03-03T19:11:45.548Z,99827.14
2019-03-03T19:14:14.599Z,99830.67
2019-03-03T19:16:43.328Z,99821.81
2019-03-03T19:19:12.065Z,99822.27
2019-03-03T19:21:40.700Z,99825.39
2019-03-03T19:24:12.180Z,99826.88
2019-03-03T19:26:40.804Z,99828.60
2019-03-03T19:29:09.511Z,99824.55
2019-03-03T19:31:39.597Z,99822.80
2019-03-03T19:34:09.780Z,99819.73
2019-03-03T19:36:41.278Z,99814.95
2019-03-03T19:39:10.405Z,99805.91
2019-03-03T19:41:40.590Z,99801.95
2019-03-03T19:44:15.905Z,99794.31
2019-03-03T19:46:44.573Z,99796.91
2019-03-03T19:49:13.227Z,99790.94
2019-03-03T19:51:42.105Z,99794.61
2019-03-03T19:54:11.960Z,99789.50
2019-03-03T19:56:40.625Z,99791.95
2019-03-03T19:59:09.932Z,99785.92
2019-03-03T20:01:38.887Z,99788.19
2019-03-03T20:04:10.909Z,99783.33
2019-03-03T20:06:39.525Z,99784.22
2019-03-03T20:09:10.036Z,99776.61
2019-03-03T20:11:42.225Z,99777.72
2019-03-03T20:14:11.278Z,99777.20
2019-03-03T20:16:42.675Z,99764.91
2019-03-03T20:19:30.887Z,99765.74
2019-03-03T20:22:02.454Z,99768.32
2019-03-03T20:24:31.482Z,99772.36
2019-03-03T20:27:00.427Z,99761.52
2019-03-03T20:29:29.040Z,99765.63
2019-03-03T20:31:58.165Z,99758.77
2019-03-03T20:34:26.986Z,99771.30
2019-03-03T20:36:55.610Z,99767.52
2019-03-03T20:39:24.234Z,99754.09
2019-03-03T20:41:55.996Z,99756.45
2019-03-03T20:44:28.040Z,99752.53
2019-03-03T20:46:57.063Z,99749.80
2019-03-03T20:49:25.783Z,99755.31
2019-03-03T20:51:54.713Z,99748.16
2019-03-03T20:54:23.336Z,99742.13
2019-03-03T20:56:52.043Z,99744.73
2019-03-03T20:59:20.670Z,99737.16
2019-03-03T21:01:49.303Z,99734.93
2019-03-03T21:04:20.783Z,99726.14
2019-03-03T21:06:49.805Z,99721.78
2019-03-03T21:09:18.525Z,99722.22
2019-03-03T21:11:50.238Z,99718.47
2019-03-03T21:14:21.921Z,99721.28
2019-03-03T21:16:50.539Z,99714.32
2019-03-03T21:19:19.155Z,99716.14
2019-03-03T21:21:47.775Z,99701.91
2019-03-03T21:24:16.383Z,99692.96
2019-03-03T21:26:45.001Z,99696.59
2019-03-03T21:29:16.891Z,99682.30
2019-03-03T21:31:45.463Z,99681.67
2019-03-03T21:34:14.118Z,99679.45
2019-03-03T21:36:42.723Z,99676.17
2019-03-03T21:39:11.961Z,99676.94
2019-03-03T21:41:40.599Z,99682.41
2019-03-03T21:44:11.982Z,99684.23
2019-03-03T21:46:40.602Z,99684.70
2019-03-03T21:49:11.998Z,99677.69
2019-03-03T21:51:40.833Z,99685.23
2019-03-03T21:54:09.379Z,99677.27
2019-03-03T21:56:41.037Z,99671.97
2019-03-03T21:59:09.644Z,99668.38
2019-03-03T22:01:39.815Z,99658.45
2019-03-03T22:04:09.974Z,99660.11
2019-03-03T22:06:42.379Z,99652.67
2019-03-03T22:09:11.961Z,99648.67
2019-03-03T22:11:40.618Z,99655.12
2019-03-03T22:14:12.005Z,99649.92
2019-03-03T22:16:40.612Z,99649.92
2019-03-03T22:19:14.968Z,99644.73
2019-03-03T22:21:46.339Z,99642.91
2019-03-03T22:24:17.616Z,99631.98
2019-03-03T22:26:46.252Z,99636.51
2019-03-03T22:29:17.828Z,99626.74
2019-03-03T22:31:46.849Z,99628.39
2019-03-03T22:34:15.462Z,99627.56
2019-03-03T22:36:47.165Z,99616.33
2019-03-03T22:39:18.543Z,99621.59
2019-03-03T22:41:47.160Z,99615.93
2019-03-03T22:44:15.775Z,99610.05
2019-03-03T22:46:47.144Z,99610.97
2019-03-03T22:49:15.756Z,99605.61
2019-03-03T22:51:44.365Z,99599.48
2019-03-03T22:54:12.979Z,99608.52
2019-03-03T22:56:44.357Z,99603.36
2019-03-03T22:59:12.966Z,99606.48
2019-03-03T23:01:41.677Z,99600.67
2019-03-03T23:04:33.133Z,99602.73
2019-03-03T23:07:10.552Z,99592.62
2019-03-03T23:09:47.970Z,99586.96
2019-03-03T23:12:31.432Z,99586.59
2019-03-03T23:15:08.528Z,99591.11
2019-03-03T23:18:11.568Z,99590.09
2019-03-03T23:20:52.054Z,99591.34
2019-03-03T23:23:41.568Z,99588.98
2019-03-03T23:26:16.604Z,99578.39
2019-03-03T23:28:43.603Z,99586.66
2019-03-03T23:31:12.918Z,99574.52
2019-03-03T23:33:44.289Z,99569.33
2019-03-03T23:36:15.505Z,99568.13
2019-03-03T23:38:44.389Z,99564.49
2019-03-03T23:41:15.926Z,99564.03
2019-03-03T23:43:44.580Z,99573.39
2019-03-03T23:46:16.177Z,99551.23
2019-03-03T23:48:44.766Z,99548.99
2019-03-03T23:51:16.452Z,99547.96
2019-03-03T23:53:45.466Z,99554.86
2019-03-03T23:56:16.952Z,99548.92
2019-03-03T23:58:45.981Z,99557.73
